createdAt,value
2022-10-12T00:01:02.333Z,2.42
2022-10-12T00:04:03.585Z,1.80
2022-10-12T00:07:04.838Z,1.30
2022-10-12T00:10:06.294Z,1.50
2022-10-12T00:13:07.784Z,1.25
2022-10-12T00:16:09.850Z,1.48
2022-10-12T00:19:12.747Z,1.30
2022-10-12T00:22:13.990Z,1.83
2022-10-12T00:25:15.240Z,1.55
2022-10-12T00:28:16.534Z,1.40
2022-10-12T00:31:19.602Z,1.08
2022-10-12T00:34:20.816Z,1.00
2022-10-12T00:37:22.065Z,1.40
2022-10-12T00:40:23.413Z,1.85
2022-10-12T00:43:34.321Z,1.25
2022-10-12T00:46:36.829Z,1.20
2022-10-12T00:49:38.180Z,1.55
2022-10-12T00:52:59.768Z,1.50
2022-10-12T00:56:02.815Z,1.80
2022-10-12T00:59:06.631Z,1.90
2022-10-12T01:02:08.238Z,1.73
2022-10-12T01:05:10.245Z,1.10
2022-10-12T01:08:11.486Z,1.02
2022-10-12T01:11:12.750Z,1.52
2022-10-12T01:14:14.073Z,1.40
2022-10-12T01:17:22.259Z,1.20
2022-10-12T01:20:33.462Z,1.67
2022-10-12T01:23:54.555Z,1.52
2022-10-12T01:26:55.805Z,1.15
2022-10-12T01:30:05.137Z,1.40
2022-10-12T01:33:17.498Z,1.38
2022-10-12T01:36:33.179Z,1.73
2022-10-12T01:39:38.274Z,1.63
2022-10-12T01:42:40.550Z,1.40
2022-10-12T01:45:41.804Z,1.75
2022-10-12T01:48:45.670Z,1.40
2022-10-12T01:51:46.890Z,1.08
2022-10-12T01:55:03.233Z,1.20
2022-10-12T01:58:10.638Z,2.47
2022-10-12T02:01:21.131Z,2.13
2022-10-12T02:04:49.102Z,1.10
2022-10-12T02:07:53.115Z,1.02
2022-10-12T02:10:59.790Z,1.17
2022-10-12T02:14:17.534Z,1.17
2022-10-12T02:17:20.283Z,1.52
2022-10-12T02:20:23.059Z,1.42
2022-10-12T02:23:25.010Z,1.50
2022-10-12T02:26:27.415Z,1.40
2022-10-12T02:29:37.780Z,1.60
2022-10-12T02:32:54.339Z,1.63
2022-10-12T02:36:12.911Z,1.77
2022-10-12T02:39:23.455Z,1.67
2022-10-12T02:42:34.609Z,1.42
2022-10-12T02:45:44.694Z,1.10
2022-10-12T02:48:47.243Z,1.20
2022-10-12T02:51:48.873Z,1.52
2022-10-12T02:54:50.122Z,1.83
2022-10-12T02:57:51.396Z,1.20
2022-10-12T03:00:52.665Z,1.25
2022-10-12T03:03:53.991Z,1.45
2022-10-12T03:06:55.239Z,1.00
2022-10-12T03:09:56.497Z,1.58
2022-10-12T03:12:57.763Z,1.95
2022-10-12T03:16:03.147Z,1.17
2022-10-12T03:19:04.517Z,1.73
2022-10-12T03:22:05.945Z,1.20
2022-10-12T03:25:07.426Z,1.60
2022-10-12T03:28:08.720Z,1.40
2022-10-12T03:31:10.114Z,2.17
2022-10-12T03:34:11.344Z,2.00
2022-10-12T03:37:12.615Z,1.52
2022-10-12T03:40:13.880Z,1.63
2022-10-12T03:43:15.179Z,1.45
2022-10-12T03:46:16.478Z,1.70
2022-10-12T03:49:17.741Z,1.55
2022-10-12T03:52:18.983Z,2.10
2022-10-12T03:55:20.313Z,1.80
2022-10-12T03:58:21.541Z,1.55
2022-10-12T04:01:22.931Z,1.95
2022-10-12T04:04:24.257Z,1.85
2022-10-12T04:07:25.491Z,1.42
2022-10-12T04:10:26.769Z,2.03
2022-10-12T04:13:28.032Z,1.80
2022-10-12T04:16:31.135Z,1.92
2022-10-12T04:19:32.636Z,1.73
2022-10-12T04:22:33.988Z,1.90
2022-10-12T04:25:35.460Z,2.00
2022-10-12T04:28:36.783Z,1.85
2022-10-12T04:31:38.047Z,1.98
2022-10-12T04:34:39.323Z,2.40
2022-10-12T04:37:41.207Z,2.00
2022-10-12T04:40:45.913Z,1.80
2022-10-12T04:43:47.167Z,2.00
2022-10-12T04:46:48.449Z,2.05
2022-10-12T04:49:49.694Z,1.60
2022-10-12T04:52:51.010Z,1.67
2022-10-12T04:55:52.323Z,2.22
2022-10-12T04:58:53.807Z,2.17
2022-10-12T05:01:55.203Z,2.22
2022-10-12T05:04:56.566Z,2.20
2022-10-12T05:07:58.003Z,2.33
2022-10-12T05:10:59.303Z,2.80
2022-10-12T05:14:00.536Z,2.58
2022-10-12T05:17:01.756Z,2.60
2022-10-12T05:20:03.513Z,1.98
2022-10-12T05:23:04.824Z,1.85
2022-10-12T05:26:06.073Z,2.88
2022-10-12T05:29:07.387Z,1.73
2022-10-12T05:32:08.778Z,2.28
2022-10-12T05:35:10.493Z,1.77
2022-10-12T05:38:11.849Z,1.83
2022-10-12T05:41:13.411Z,1.70
2022-10-12T05:44:14.701Z,1.63
2022-10-12T05:47:16.066Z,1.83
2022-10-12T05:50:17.509Z,2.03
2022-10-12T05:53:18.861Z,1.65
2022-10-12T05:56:20.348Z,1.52
2022-10-12T05:59:21.606Z,1.50
2022-10-12T06:02:22.918Z,1.60
2022-10-12T06:05:25.013Z,1.65
2022-10-12T06:08:26.329Z,1.83
2022-10-12T06:11:29.443Z,1.92
2022-10-12T06:14:32.884Z,1.83
2022-10-12T06:17:34.147Z,2.38
2022-10-12T06:20:35.389Z,1.80
2022-10-12T06:23:36.628Z,1.73
2022-10-12T06:26:37.846Z,2.33
2022-10-12T06:29:39.290Z,1.45
2022-10-12T06:32:40.881Z,2.08
2022-10-12T06:35:42.309Z,2.15
2022-10-12T06:38:43.559Z,1.75
2022-10-12T06:41:44.886Z,2.17
2022-10-12T06:44:46.211Z,1.40
2022-10-12T06:47:47.487Z,2.50
2022-10-12T06:50:48.786Z,1.70
2022-10-12T06:53:50.050Z,1.80
2022-10-12T06:56:53.354Z,1.75
2022-10-12T06:59:57.905Z,2.78
2022-10-12T07:02:59.176Z,1.58
2022-10-12T07:06:07.505Z,1.85
2022-10-12T07:09:08.873Z,2.42
2022-10-12T07:12:10.149Z,3.35
2022-10-12T07:15:11.542Z,1.83
2022-10-12T07:18:12.799Z,1.92
2022-10-12T07:21:14.098Z,2.58
2022-10-12T07:24:15.418Z,1.92
2022-10-12T07:27:16.727Z,2.13
2022-10-12T07:30:18.034Z,1.80
2022-10-12T07:33:19.314Z,1.95
2022-10-12T07:36:22.039Z,2.40
2022-10-12T07:39:24.296Z,1.90
2022-10-12T07:42:25.593Z,2.35
2022-10-12T07:45:28.627Z,2.10
2022-10-12T07:48:29.862Z,2.40
2022-10-12T07:51:31.344Z,2.10
2022-10-12T07:54:32.792Z,2.08
2022-10-12T07:57:34.067Z,1.83
2022-10-12T08:00:35.318Z,2.22
2022-10-12T08:03:36.988Z,2.30
2022-10-12T08:06:38.314Z,2.00
2022-10-12T08:09:39.558Z,1.58
2022-10-12T08:12:41.041Z,2.60
2022-10-12T08:15:47.974Z,2.67
2022-10-12T08:18:49.365Z,2.10
2022-10-12T08:21:50.654Z,2.03
2022-10-12T08:24:51.928Z,2.78
2022-10-12T08:27:53.310Z,2.05
2022-10-12T08:30:54.636Z,1.98
2022-10-12T08:33:59.139Z,1.75
2022-10-12T08:40:03.480Z,2.53
2022-10-12T08:43:14.033Z,2.17
2022-10-12T08:46:18.750Z,2.30
2022-10-12T08:49:21.441Z,2.10
2022-10-12T08:52:26.303Z,2.65
2022-10-12T08:55:40.086Z,2.30
2022-10-12T08:58:41.360Z,2.08
2022-10-12T09:02:01.292Z,2.15
2022-10-12T09:05:05.835Z,1.92
2022-10-12T09:08:13.823Z,2.05
2022-10-12T09:11:33.651Z,1.60
2022-10-12T09:14:37.872Z,2.63
2022-10-12T09:17:41.430Z,2.50
2022-10-12T09:20:49.865Z,2.13
2022-10-12T09:23:51.253Z,1.80
2022-10-12T09:26:54.764Z,2.30
2022-10-12T09:29:58.332Z,2.22
2022-10-12T09:33:12.755Z,2.30
2022-10-12T09:36:16.771Z,2.42
2022-10-12T09:39:18.024Z,2.40
2022-10-12T09:42:19.250Z,2.53
2022-10-12T09:45:21.693Z,2.15
2022-10-12T09:48:24.546Z,2.20
2022-10-12T09:51:28.176Z,2.20
2022-10-12T09:54:29.608Z,1.92
2022-10-12T09:57:35.952Z,2.13
2022-10-12T10:00:37.205Z,2.63
2022-10-12T10:03:38.456Z,1.88
2022-10-12T10:06:41.727Z,2.35
2022-10-12T10:09:43.151Z,2.20
2022-10-12T10:12:54.844Z,2.78
2022-10-12T10:16:14.456Z,2.30
2022-10-12T10:19:21.208Z,2.40
2022-10-12T10:22:23.121Z,2.63
2022-10-12T10:25:24.672Z,3.40
2022-10-12T10:28:29.327Z,2.90
2022-10-12T10:31:35.395Z,2.50
2022-10-12T10:34:36.694Z,2.20
2022-10-12T10:37:39.180Z,2.80
2022-10-12T10:40:40.436Z,2.70
2022-10-12T10:43:45.884Z,2.30
2022-10-12T10:46:47.156Z,2.10
2022-10-12T10:49:49.977Z,2.00
2022-10-12T10:52:56.748Z,2.40
2022-10-12T10:56:10.355Z,2.70
2022-10-12T10:59:17.830Z,3.38
2022-10-12T11:02:37.700Z,2.45
2022-10-12T11:05:43.188Z,3.00
2022-10-12T11:08:45.263Z,2.58
2022-10-12T11:11:51.116Z,3.20
2022-10-12T11:14:54.021Z,2.50
2022-10-12T11:18:07.378Z,2.65
2022-10-12T11:21:13.061Z,3.30
2022-10-12T11:24:18.745Z,3.70
2022-10-12T11:27:39.743Z,2.80
2022-10-12T11:30:43.481Z,3.42
2022-10-12T11:37:14.344Z,2.60
2022-10-12T11:40:16.659Z,2.63
2022-10-12T11:43:30.067Z,2.25
2022-10-12T11:46:40.762Z,3.30
2022-10-12T11:49:53.932Z,2.65
2022-10-12T11:52:56.450Z,2.42
2022-10-12T11:56:04.440Z,2.80
2022-10-12T11:59:10.824Z,3.22
2022-10-12T12:02:17.019Z,2.40
2022-10-12T12:05:18.315Z,3.00
2022-10-12T12:08:42.924Z,2.90
2022-10-12T12:11:44.230Z,3.60
2022-10-12T12:14:48.487Z,3.28
2022-10-12T12:18:08.455Z,3.10
2022-10-12T12:21:09.863Z,3.38
2022-10-12T12:24:16.509Z,3.17
2022-10-12T12:27:22.275Z,3.40
2022-10-12T12:30:26.113Z,3.25
2022-10-12T12:33:27.424Z,3.15
2022-10-12T12:36:31.590Z,3.75
2022-10-12T12:39:33.745Z,3.35
2022-10-12T12:42:36.090Z,3.20
2022-10-12T12:45:37.329Z,3.17
2022-10-12T12:48:38.587Z,3.50
2022-10-12T12:51:42.544Z,3.70
2022-10-12T12:55:06.985Z,3.13
2022-10-12T12:58:11.102Z,3.10
2022-10-12T13:01:18.231Z,3.58
2022-10-12T13:04:31.241Z,3.35
2022-10-12T13:07:54.160Z,3.00
2022-10-12T13:11:18.823Z,3.50
2022-10-12T13:14:38.756Z,4.07
2022-10-12T13:17:40.195Z,3.08
2022-10-12T13:20:43.000Z,3.22
2022-10-12T13:23:45.995Z,3.25
2022-10-12T13:29:51.955Z,3.67
2022-10-12T13:33:02.104Z,2.78
2022-10-12T13:36:08.088Z,3.05
2022-10-12T13:39:16.389Z,3.00
2022-10-12T13:42:23.338Z,2.65
2022-10-12T13:45:24.625Z,2.85
2022-10-12T13:48:53.733Z,3.20
2022-10-12T13:51:49.483Z,2.90
2022-10-12T13:54:51.023Z,3.22
2022-10-12T13:57:52.319Z,3.38
2022-10-12T14:00:53.806Z,3.58
2022-10-12T14:04:02.278Z,2.67
2022-10-12T14:07:05.210Z,3.40
2022-10-12T14:10:08.822Z,3.80
2022-10-12T14:13:14.424Z,3.20
2022-10-12T14:16:15.897Z,3.67
2022-10-12T14:19:18.589Z,3.20
2022-10-12T14:22:21.894Z,3.35
2022-10-12T14:25:24.578Z,3.17
2022-10-12T14:28:35.273Z,3.20
2022-10-12T14:31:53.628Z,3.25
2022-10-12T14:35:09.423Z,3.55
2022-10-12T14:38:29.485Z,3.75
2022-10-12T14:41:35.547Z,3.92
2022-10-12T14:44:43.651Z,3.25
2022-10-12T14:47:44.935Z,3.38
2022-10-12T14:50:46.369Z,3.33
2022-10-12T14:53:57.232Z,3.50
2022-10-12T14:57:10.417Z,3.42
2022-10-12T15:00:15.871Z,3.03
2022-10-12T15:03:17.933Z,3.47
2022-10-12T15:06:19.350Z,3.72
2022-10-12T15:09:20.622Z,3.95
2022-10-12T15:12:22.552Z,3.78
2022-10-12T15:15:38.755Z,3.90
2022-10-12T15:18:40.070Z,4.05
2022-10-12T15:21:41.316Z,3.53
2022-10-12T15:24:42.622Z,3.88
2022-10-12T15:27:43.883Z,3.88
2022-10-12T15:31:12.200Z,3.72
2022-10-12T15:34:14.313Z,3.70
2022-10-12T15:37:15.840Z,3.80
2022-10-12T15:40:18.529Z,4.18
2022-10-12T15:43:20.426Z,3.63
2022-10-12T15:46:21.979Z,3.80
2022-10-12T15:49:24.387Z,3.35
2022-10-12T15:52:25.753Z,3.88
2022-10-12T15:55:28.044Z,3.78
2022-10-12T15:58:29.290Z,4.78
2022-10-12T16:01:30.894Z,4.45
2022-10-12T16:04:32.181Z,4.10
2022-10-12T16:07:33.430Z,4.43
2022-10-12T16:10:37.034Z,4.25
2022-10-12T16:13:42.986Z,4.38
2022-10-12T16:16:48.195Z,4.88
2022-10-12T16:19:49.505Z,4.72
2022-10-12T16:22:50.804Z,4.55
2022-10-12T16:25:52.160Z,4.07
2022-10-12T16:28:53.508Z,4.47
2022-10-12T16:31:54.823Z,3.85
2022-10-12T16:34:56.157Z,4.15
2022-10-12T16:37:57.605Z,4.55
2022-10-12T16:40:58.856Z,5.85
2022-10-12T16:44:00.100Z,7.38
2022-10-12T16:47:02.139Z,5.40
2022-10-12T16:50:03.509Z,5.38
2022-10-12T16:53:04.758Z,4.72
2022-10-12T16:56:06.127Z,4.88
2022-10-12T16:59:07.393Z,4.88
2022-10-12T17:02:10.436Z,5.35
2022-10-12T17:05:11.721Z,5.97
2022-10-12T17:08:15.537Z,10.73
2022-10-12T17:11:17.132Z,8.27
2022-10-12T17:14:18.437Z,6.85
2022-10-12T17:17:19.956Z,5.82
2022-10-12T17:20:21.355Z,6.80
2022-10-12T17:23:22.619Z,6.80
2022-10-12T17:26:23.959Z,6.30
2022-10-12T17:29:26.209Z,7.00
2022-10-12T17:32:27.492Z,6.75
2022-10-12T17:35:28.730Z,7.43
2022-10-12T17:38:30.008Z,6.15
2022-10-12T17:41:31.269Z,6.78
2022-10-12T17:44:32.688Z,7.15
2022-10-12T17:47:33.989Z,6.40
2022-10-12T17:50:35.214Z,6.70
2022-10-12T17:53:36.692Z,6.38
2022-10-12T17:56:38.011Z,6.63
2022-10-12T17:59:39.295Z,5.78
2022-10-12T18:02:40.563Z,6.50
2022-10-12T18:05:41.846Z,6.50
2022-10-12T18:08:43.604Z,6.55
2022-10-12T18:11:44.880Z,6.47
2022-10-12T18:14:46.155Z,7.30
2022-10-12T18:17:47.415Z,6.72
2022-10-12T18:20:49.435Z,6.82
2022-10-12T18:23:50.991Z,6.50
2022-10-12T18:26:52.489Z,7.20
2022-10-12T18:29:55.165Z,7.68
2022-10-12T18:32:56.877Z,6.70
2022-10-12T18:36:05.533Z,6.55
2022-10-12T18:39:06.781Z,7.65
2022-10-12T18:42:08.049Z,6.85
2022-10-12T18:45:09.626Z,7.55
2022-10-12T18:48:13.559Z,7.95
2022-10-12T18:51:16.781Z,7.75
2022-10-12T18:54:18.174Z,8.18
2022-10-12T18:57:19.460Z,8.07
2022-10-12T19:00:20.745Z,9.73
2022-10-12T19:03:22.100Z,9.32
2022-10-12T19:06:24.743Z,7.50
2022-10-12T19:09:26.274Z,7.30
2022-10-12T19:12:27.555Z,5.72
2022-10-12T19:15:29.456Z,6.60
2022-10-12T19:18:30.728Z,6.60
2022-10-12T19:21:32.145Z,5.75
2022-10-12T19:24:33.546Z,6.93
2022-10-12T19:27:34.835Z,5.30
2022-10-12T19:30:39.133Z,5.43
2022-10-12T19:33:40.657Z,5.55
2022-10-12T19:36:42.001Z,5.20
2022-10-12T19:39:46.847Z,6.93
2022-10-12T19:42:49.091Z,6.90
2022-10-12T19:45:50.927Z,7.60
2022-10-12T19:48:53.245Z,6.13
2022-10-12T19:51:54.583Z,8.02
2022-10-12T19:54:55.838Z,7.68
2022-10-12T19:57:57.092Z,7.82
2022-10-12T20:01:06.151Z,8.32
2022-10-12T20:04:09.817Z,7.07
2022-10-12T20:07:12.541Z,6.90
2022-10-12T20:10:13.919Z,6.68
2022-10-12T20:13:15.218Z,6.47
2022-10-12T20:16:17.609Z,6.53
2022-10-12T20:19:18.876Z,7.90
2022-10-12T20:22:20.427Z,6.38
2022-10-12T20:25:21.946Z,5.65
2022-10-12T20:28:23.254Z,5.40
2022-10-12T20:31:24.842Z,6.78
2022-10-12T20:34:26.098Z,6.68
2022-10-12T20:37:27.686Z,5.65
2022-10-12T20:40:29.011Z,5.68
2022-10-12T20:43:30.264Z,6.35
2022-10-12T20:46:31.591Z,6.85
2022-10-12T20:49:33.111Z,7.43
2022-10-12T20:52:34.361Z,7.20
2022-10-12T20:55:38.530Z,6.82
2022-10-12T20:58:39.798Z,8.00
2022-10-12T21:01:41.351Z,6.38
2022-10-12T21:04:42.846Z,5.90
2022-10-12T21:07:44.126Z,6.93
2022-10-12T21:10:48.353Z,6.00
2022-10-12T21:13:49.746Z,6.50
2022-10-12T21:16:51.015Z,7.20
2022-10-12T21:19:53.637Z,5.82
2022-10-12T21:22:54.992Z,6.25
2022-10-12T21:25:56.346Z,6.03
2022-10-12T21:28:58.596Z,5.95
2022-10-12T21:31:59.865Z,5.97
2022-10-12T21:35:01.122Z,6.45
2022-10-12T21:38:03.571Z,5.80
2022-10-12T21:41:05.181Z,6.10
2022-10-12T21:44:06.411Z,6.00
2022-10-12T21:47:07.648Z,6.75
2022-10-12T21:50:09.358Z,6.45
2022-10-12T21:53:10.625Z,5.20
2022-10-12T21:56:16.898Z,5.35
2022-10-12T21:59:18.150Z,6.32
2022-10-12T22:02:20.035Z,5.63
2022-10-12T22:05:21.395Z,5.35
2022-10-12T22:08:22.630Z,5.30
2022-10-12T22:11:24.281Z,6.07
2022-10-12T22:14:25.588Z,6.28
2022-10-12T22:17:26.878Z,6.72
2022-10-12T22:20:28.122Z,6.85
2022-10-12T22:23:29.364Z,6.82
2022-10-12T22:26:30.685Z,8.18
2022-10-12T22:29:32.017Z,7.10
2022-10-12T22:32:33.273Z,5.90
2022-10-12T22:35:34.517Z,6.10
2022-10-12T22:38:35.787Z,5.90
2022-10-12T22:41:37.056Z,5.35
2022-10-12T22:44:38.339Z,5.82
2022-10-12T22:47:39.619Z,5.95
2022-10-12T22:50:42.658Z,5.97
2022-10-12T22:53:43.906Z,5.75
2022-10-12T22:56:45.273Z,5.40
2022-10-12T22:59:46.492Z,5.15
2022-10-12T23:02:47.772Z,5.25
2022-10-12T23:05:49.427Z,4.75
2022-10-12T23:08:50.766Z,4.95
2022-10-12T23:11:51.995Z,4.90
2022-10-12T23:14:53.213Z,6.03
2022-10-12T23:17:54.452Z,5.97
2022-10-12T23:20:55.699Z,4.40
2022-10-12T23:23:57.970Z,5.18
2022-10-12T23:26:59.209Z,5.20
2022-10-12T23:30:00.528Z,5.22
2022-10-12T23:33:01.757Z,4.07
2022-10-12T23:36:07.070Z,5.45
2022-10-12T23:39:08.336Z,4.55
2022-10-12T23:42:09.588Z,4.80
2022-10-12T23:45:10.819Z,5.40
2022-10-12T23:48:12.110Z,5.35
2022-10-12T23:51:13.400Z,4.95
2022-10-12T23:54:14.653Z,4.72
2022-10-12T23:57:41.535Z,4.78
